createdAt,value
2019-03-08T00:01:36.941Z,1.75
2019-03-08T00:04:05.251Z,2.00
2019-03-08T00:06:35.524Z,1.67
2019-03-08T00:09:05.286Z,1.98
2019-03-08T00:11:33.862Z,1.50
2019-03-08T00:14:01.848Z,2.10
2019-03-08T00:16:30.524Z,1.60
2019-03-08T00:19:10.091Z,1.70
2019-03-08T00:21:41.984Z,1.85
2019-03-08T00:24:06.161Z,1.95
2019-03-08T00:26:36.474Z,1.65
2019-03-08T00:29:06.187Z,1.98
2019-03-08T00:31:40.703Z,1.50
2019-03-08T00:34:09.607Z,2.37
2019-03-08T00:36:44.615Z,1.60
2019-03-08T00:39:12.534Z,2.00
2019-03-08T00:41:40.838Z,1.90
2019-03-08T00:44:08.938Z,1.50
2019-03-08T00:46:36.832Z,2.10
2019-03-08T00:49:04.886Z,1.72
2019-03-08T00:51:32.826Z,1.60
2019-03-08T00:54:01.169Z,2.05
2019-03-08T00:56:30.003Z,1.70
2019-03-08T00:58:58.498Z,1.90
2019-03-08T01:01:28.696Z,1.60
2019-03-08T01:03:58.675Z,2.20
2019-03-08T01:06:27.750Z,3.45
2019-03-08T01:08:55.706Z,2.95
2019-03-08T01:11:23.978Z,1.62
2019-03-08T01:13:55.041Z,1.85
2019-03-08T01:16:23.054Z,2.37
2019-03-08T01:18:52.074Z,2.00
2019-03-08T01:21:20.884Z,1.98
2019-03-08T01:23:48.831Z,1.60
2019-03-08T01:26:18.363Z,2.15
2019-03-08T01:28:47.085Z,1.98
2019-03-08T01:31:17.067Z,3.33
2019-03-08T01:33:44.972Z,1.90
2019-03-08T01:36:15.059Z,2.20
2019-03-08T01:38:43.073Z,2.15
2019-03-08T01:41:13.084Z,2.15
2019-03-08T01:43:41.305Z,2.50
2019-03-08T01:46:10.301Z,2.00
2019-03-08T01:48:38.364Z,2.55
2019-03-08T01:51:07.459Z,2.50
2019-03-08T01:53:35.517Z,3.90
2019-03-08T01:56:03.517Z,2.60
2019-03-08T01:58:33.006Z,2.15
2019-03-08T02:01:01.653Z,2.50
2019-03-08T02:03:31.662Z,2.70
2019-03-08T02:06:00.830Z,2.60
2019-03-08T02:08:32.666Z,3.00
2019-03-08T02:11:03.618Z,3.92
2019-03-08T02:13:33.981Z,3.27
2019-03-08T02:16:04.201Z,3.20
2019-03-08T02:18:36.006Z,4.10
2019-03-08T02:21:07.282Z,3.70
2019-03-08T02:23:34.172Z,3.42
2019-03-08T02:26:03.578Z,4.05
2019-03-08T02:28:32.761Z,4.42
2019-03-08T02:31:01.917Z,4.05
2019-03-08T02:33:34.077Z,3.65
2019-03-08T02:36:04.437Z,4.08
2019-03-08T02:38:33.413Z,4.08
2019-03-08T02:41:02.912Z,4.15
2019-03-08T02:43:34.614Z,4.35
2019-03-08T02:46:03.595Z,4.45
2019-03-08T02:48:33.859Z,4.55
2019-03-08T02:51:04.562Z,6.00
2019-03-08T02:53:34.408Z,5.15
2019-03-08T02:56:02.722Z,8.23
2019-03-08T02:58:33.794Z,5.25
2019-03-08T03:01:01.514Z,5.35
2019-03-08T03:03:41.897Z,5.15
2019-03-08T03:06:13.154Z,4.47
2019-03-08T03:08:43.495Z,5.10
2019-03-08T03:11:13.514Z,5.47
2019-03-08T03:13:42.573Z,5.50
2019-03-08T03:16:12.153Z,5.12
2019-03-08T03:18:40.087Z,4.30
2019-03-08T03:21:08.151Z,4.15
2019-03-08T03:23:38.134Z,4.33
2019-03-08T03:26:06.717Z,4.72
2019-03-08T03:28:34.782Z,3.83
2019-03-08T03:31:05.197Z,4.40
2019-03-08T03:33:33.220Z,3.72
2019-03-08T03:36:03.047Z,4.25
2019-03-08T03:38:34.723Z,4.22
2019-03-08T03:41:02.716Z,3.95
2019-03-08T03:43:30.970Z,4.20
2019-03-08T03:45:59.603Z,4.03
2019-03-08T03:48:30.895Z,3.98
2019-03-08T03:50:59.307Z,3.47
2019-03-08T03:53:27.675Z,4.35
2019-03-08T03:55:56.919Z,4.62
2019-03-08T03:58:24.997Z,4.25
2019-03-08T04:00:53.568Z,3.50
2019-03-08T04:03:22.331Z,4.50
2019-03-08T04:05:50.273Z,4.42
2019-03-08T04:08:20.504Z,4.25
2019-03-08T04:10:48.415Z,4.92
2019-03-08T04:13:18.304Z,5.10
2019-03-08T04:15:46.412Z,4.80
2019-03-08T04:18:25.392Z,5.65
2019-03-08T04:20:53.606Z,5.78
2019-03-08T04:23:25.069Z,6.05
2019-03-08T04:25:55.050Z,5.25
2019-03-08T04:28:27.277Z,4.65
2019-03-08T04:30:55.390Z,4.80
2019-03-08T04:33:23.667Z,6.22
2019-03-08T04:35:52.830Z,5.03
2019-03-08T04:38:27.670Z,5.22
2019-03-08T04:40:55.646Z,5.45
2019-03-08T04:43:24.427Z,5.62
2019-03-08T04:45:52.299Z,6.03
2019-03-08T04:48:20.326Z,5.17
2019-03-08T04:50:52.010Z,4.65
2019-03-08T04:53:20.026Z,4.70
2019-03-08T04:55:47.985Z,4.35
2019-03-08T04:58:20.465Z,4.12
2019-03-08T05:00:49.589Z,4.08
2019-03-08T05:03:20.429Z,4.50
2019-03-08T05:05:50.189Z,4.42
2019-03-08T05:08:18.808Z,3.35
2019-03-08T05:10:46.713Z,4.12
2019-03-08T05:13:14.679Z,3.95
2019-03-08T05:15:49.370Z,3.02
2019-03-08T05:18:18.647Z,3.15
2019-03-08T05:20:47.284Z,3.80
2019-03-08T05:23:15.177Z,3.42
2019-03-08T05:25:43.104Z,3.15
2019-03-08T05:28:11.073Z,4.05
2019-03-08T05:30:40.277Z,3.58
2019-03-08T05:33:08.233Z,4.85
2019-03-08T05:35:38.296Z,3.65
2019-03-08T05:38:07.084Z,3.58
2019-03-08T05:40:35.051Z,3.65
2019-03-08T05:43:04.493Z,5.37
2019-03-08T05:45:32.584Z,3.90
2019-03-08T05:48:02.787Z,3.72
2019-03-08T05:50:33.745Z,3.90
2019-03-08T05:53:01.667Z,4.17
2019-03-08T05:55:29.749Z,3.95
2019-03-08T05:57:57.581Z,3.92
2019-03-08T06:00:32.072Z,3.95
2019-03-08T06:02:56.274Z,4.42
2019-03-08T06:05:24.157Z,4.00
2019-03-08T06:07:52.379Z,3.92
2019-03-08T06:10:38.534Z,4.25
2019-03-08T06:13:06.566Z,3.45
2019-03-08T06:15:34.574Z,4.10
2019-03-08T06:18:02.492Z,4.35
2019-03-08T06:20:30.456Z,3.70
2019-03-08T06:22:58.438Z,3.95
2019-03-08T06:25:26.395Z,7.20
2019-03-08T06:27:54.354Z,4.55
2019-03-08T06:30:24.319Z,3.20
2019-03-08T06:32:52.659Z,3.85
2019-03-08T06:35:20.760Z,5.50
2019-03-08T06:37:48.676Z,4.03
2019-03-08T06:40:16.518Z,3.35
2019-03-08T06:42:44.366Z,3.70
2019-03-08T06:45:12.726Z,4.30
2019-03-08T06:47:40.590Z,3.10
2019-03-08T06:50:09.079Z,4.15
2019-03-08T06:52:37.519Z,3.58
2019-03-08T06:55:06.227Z,3.05
2019-03-08T06:57:34.088Z,3.00
2019-03-08T07:00:17.521Z,3.55
2019-03-08T07:02:45.465Z,3.70
2019-03-08T07:05:13.307Z,5.08
2019-03-08T07:07:41.201Z,3.70
2019-03-08T07:10:09.069Z,3.47
2019-03-08T07:12:37.126Z,4.50
2019-03-08T07:15:05.461Z,4.75
2019-03-08T07:17:34.890Z,4.97
2019-03-08T07:20:27.931Z,4.50
2019-03-08T07:23:11.144Z,3.30
2019-03-08T07:26:04.452Z,3.37
2019-03-08T07:28:49.133Z,4.03
2019-03-08T07:31:45.431Z,4.03
2019-03-08T07:34:41.703Z,3.22
2019-03-08T07:37:27.269Z,3.55
2019-03-08T07:40:05.026Z,4.37
2019-03-08T07:42:54.970Z,3.98
2019-03-08T07:45:37.158Z,5.00
2019-03-08T07:48:27.077Z,3.60
2019-03-08T07:51:23.100Z,4.55
2019-03-08T07:54:15.574Z,4.33
2019-03-08T07:56:58.482Z,3.77
2019-03-08T07:59:54.678Z,5.30
2019-03-08T08:02:30.429Z,3.60
2019-03-08T08:05:17.353Z,2.90
2019-03-08T08:08:05.948Z,5.95
2019-03-08T08:10:53.266Z,3.90
2019-03-08T08:13:43.044Z,3.80
2019-03-08T08:16:28.561Z,3.37
2019-03-08T08:19:21.615Z,4.03
2019-03-08T08:22:07.181Z,3.72
2019-03-08T08:24:52.905Z,5.83
2019-03-08T08:27:26.515Z,4.30
2019-03-08T08:30:25.588Z,4.22
2019-03-08T08:33:10.983Z,3.12
2019-03-08T08:35:50.395Z,4.15
2019-03-08T08:38:27.028Z,5.10
2019-03-08T08:41:14.222Z,3.85
2019-03-08T08:44:04.099Z,3.80
2019-03-08T08:47:00.217Z,3.75
2019-03-08T08:49:39.722Z,4.58
2019-03-08T08:52:26.626Z,4.85
2019-03-08T08:55:02.073Z,4.05
2019-03-08T08:57:51.989Z,6.05
2019-03-08T09:00:54.506Z,4.55
2019-03-08T09:03:50.356Z,4.87
2019-03-08T09:06:32.582Z,3.50
2019-03-08T09:09:10.306Z,4.45
2019-03-08T09:12:00.286Z,3.22
2019-03-08T09:14:35.630Z,3.35
2019-03-08T09:17:24.873Z,3.60
2019-03-08T09:20:00.860Z,4.10
2019-03-08T09:23:03.097Z,4.15
2019-03-08T09:25:36.439Z,2.12
2019-03-08T09:28:12.040Z,2.30
2019-03-08T09:30:54.671Z,2.00
2019-03-08T09:33:30.033Z,2.40
2019-03-08T09:36:15.789Z,2.12
2019-03-08T09:38:59.331Z,2.10
2019-03-08T09:41:53.197Z,1.67
2019-03-08T09:44:30.210Z,2.17
2019-03-08T09:47:17.110Z,3.20
2019-03-08T09:50:19.291Z,3.22
2019-03-08T09:52:53.792Z,3.70
2019-03-08T09:55:46.838Z,2.60
2019-03-08T09:58:32.407Z,2.75
2019-03-08T10:01:25.163Z,3.45
2019-03-08T10:04:10.637Z,4.03
2019-03-08T10:06:57.794Z,3.80
2019-03-08T10:09:37.934Z,3.00
2019-03-08T10:12:21.000Z,2.95
2019-03-08T10:15:23.322Z,3.58
2019-03-08T10:18:08.925Z,4.22
2019-03-08T10:21:11.284Z,3.15
2019-03-08T10:23:46.310Z,4.35
2019-03-08T10:26:35.996Z,3.27
2019-03-08T10:29:23.464Z,3.83
2019-03-08T10:32:09.882Z,4.87
2019-03-08T10:34:49.101Z,2.85
2019-03-08T10:37:27.210Z,3.60
2019-03-08T10:40:05.532Z,2.80
2019-03-08T10:42:50.752Z,2.77
2019-03-08T10:45:35.950Z,3.22
2019-03-08T10:48:25.960Z,3.58
2019-03-08T10:51:30.895Z,3.40
2019-03-08T10:54:16.794Z,4.33
2019-03-08T10:57:02.111Z,3.00
2019-03-08T10:59:46.266Z,3.08
2019-03-08T11:02:26.739Z,3.00
2019-03-08T11:05:20.105Z,2.98
2019-03-08T11:07:55.529Z,3.15
2019-03-08T11:10:33.881Z,3.30
2019-03-08T11:13:32.619Z,2.60
2019-03-08T11:16:31.913Z,2.90
2019-03-08T11:19:21.839Z,3.15
2019-03-08T11:22:08.596Z,2.75
2019-03-08T11:24:44.860Z,3.08
2019-03-08T11:27:34.744Z,2.47
2019-03-08T11:30:11.621Z,2.40
2019-03-08T11:32:56.450Z,2.35
2019-03-08T11:35:29.477Z,2.90
2019-03-08T11:38:12.307Z,3.02
2019-03-08T11:40:57.798Z,2.58
2019-03-08T11:43:47.922Z,2.40
2019-03-08T11:46:32.630Z,3.17
2019-03-08T11:49:21.273Z,2.12
2019-03-08T11:52:06.899Z,2.00
2019-03-08T11:55:12.148Z,2.40
2019-03-08T11:57:58.001Z,2.25
2019-03-08T12:00:47.779Z,2.00
2019-03-08T12:03:52.831Z,2.50
2019-03-08T12:06:31.253Z,2.00
2019-03-08T12:09:21.233Z,2.35
2019-03-08T12:12:08.187Z,2.20
2019-03-08T12:15:04.262Z,1.92
2019-03-08T12:17:54.086Z,2.00
2019-03-08T12:20:34.633Z,2.00
2019-03-08T12:23:20.402Z,2.33
2019-03-08T12:26:20.178Z,2.40
2019-03-08T12:29:22.172Z,2.35
2019-03-08T12:32:12.006Z,2.77
2019-03-08T12:34:48.620Z,2.50
2019-03-08T12:37:44.767Z,2.62
2019-03-08T12:40:30.709Z,2.52
2019-03-08T12:43:17.602Z,2.45
2019-03-08T12:45:51.176Z,2.33
2019-03-08T12:48:36.791Z,2.40
2019-03-08T12:51:15.828Z,2.00
2019-03-08T12:54:11.969Z,2.52
2019-03-08T12:57:02.018Z,2.20
2019-03-08T12:59:47.968Z,1.70
2019-03-08T13:02:32.310Z,2.10
2019-03-08T13:05:18.085Z,2.00
2019-03-08T13:08:05.004Z,1.60
2019-03-08T13:10:32.835Z,1.75
2019-03-08T13:13:00.701Z,1.82
2019-03-08T13:15:28.558Z,1.70
2019-03-08T13:17:56.401Z,2.00
2019-03-08T13:20:24.280Z,2.20
2019-03-08T13:22:52.266Z,1.82
2019-03-08T13:25:20.340Z,1.92
2019-03-08T13:27:48.219Z,1.70
2019-03-08T13:30:17.371Z,2.05
2019-03-08T13:32:45.255Z,2.50
2019-03-08T13:35:13.302Z,1.90
2019-03-08T13:37:41.177Z,1.90
2019-03-08T13:40:10.330Z,2.42
2019-03-08T13:42:38.149Z,2.22
2019-03-08T13:45:07.216Z,3.08
2019-03-08T13:47:35.075Z,2.40
2019-03-08T13:50:02.950Z,2.60
2019-03-08T13:52:30.849Z,2.40
2019-03-08T13:54:58.721Z,3.30
2019-03-08T13:57:26.569Z,2.33
2019-03-08T13:59:54.540Z,2.50
2019-03-08T14:02:22.457Z,2.45
2019-03-08T14:04:50.350Z,2.60
2019-03-08T14:07:18.282Z,4.20
2019-03-08T14:09:46.230Z,3.52
2019-03-08T14:12:14.119Z,5.47
2019-03-08T14:14:42.043Z,3.70
2019-03-08T14:17:10.010Z,3.90
2019-03-08T14:19:37.849Z,5.25
2019-03-08T14:22:05.718Z,3.50
2019-03-08T14:24:33.570Z,2.65
2019-03-08T14:27:01.834Z,3.15
2019-03-08T14:29:29.758Z,2.45
2019-03-08T14:32:03.263Z,2.67
2019-03-08T14:34:31.096Z,2.60
2019-03-08T14:36:58.985Z,2.22
2019-03-08T14:39:28.138Z,2.02
2019-03-08T14:42:15.498Z,2.67
2019-03-08T14:45:08.851Z,2.15
2019-03-08T14:47:39.615Z,2.40
2019-03-08T14:50:08.814Z,1.82
2019-03-08T14:52:36.685Z,2.20
2019-03-08T14:55:05.027Z,1.85
2019-03-08T14:57:32.938Z,1.77
2019-03-08T15:00:00.903Z,1.70
2019-03-08T15:02:28.779Z,2.12
2019-03-08T15:04:56.665Z,1.98
2019-03-08T15:07:24.602Z,1.50
2019-03-08T15:09:52.495Z,2.12
2019-03-08T15:12:20.334Z,3.02
2019-03-08T15:14:48.434Z,1.80
2019-03-08T15:17:16.977Z,1.40
2019-03-08T15:19:45.561Z,1.70
2019-03-08T15:22:13.502Z,1.70
2019-03-08T15:24:41.351Z,1.60
2019-03-08T15:27:09.242Z,1.82
2019-03-08T15:29:37.290Z,1.80
2019-03-08T15:32:05.151Z,2.33
2019-03-08T15:34:33.063Z,1.47
2019-03-08T15:37:00.948Z,1.62
2019-03-08T15:39:28.913Z,1.92
2019-03-08T15:41:58.653Z,1.67
2019-03-08T15:44:28.230Z,1.85
2019-03-08T15:46:59.295Z,1.70
2019-03-08T15:49:26.683Z,1.60
2019-03-08T15:51:55.434Z,1.60
2019-03-08T15:54:23.404Z,1.60
2019-03-08T15:56:51.483Z,1.70
2019-03-08T15:59:19.697Z,2.08
2019-03-08T16:01:47.653Z,3.47
2019-03-08T16:04:15.505Z,2.10
2019-03-08T16:06:44.113Z,1.65
2019-03-08T16:09:12.977Z,1.62
2019-03-08T16:11:40.933Z,2.00
2019-03-08T16:14:09.295Z,2.10
2019-03-08T16:16:37.329Z,2.42
2019-03-08T16:19:05.203Z,2.40
2019-03-08T16:21:33.109Z,2.00
2019-03-08T16:24:01.114Z,2.80
2019-03-08T16:26:29.040Z,2.55
2019-03-08T16:28:56.962Z,2.50
2019-03-08T16:31:33.470Z,3.67
2019-03-08T16:34:01.570Z,2.80
2019-03-08T16:36:34.658Z,2.33
2019-03-08T16:39:21.758Z,2.00
2019-03-08T16:42:14.232Z,1.85
2019-03-08T16:45:13.091Z,2.30
2019-03-08T16:47:58.604Z,2.80
2019-03-08T16:50:51.684Z,2.92
2019-03-08T16:53:28.763Z,5.20
2019-03-08T16:56:17.686Z,3.20
2019-03-08T16:59:13.382Z,3.83
2019-03-08T17:02:09.430Z,3.67
2019-03-08T17:04:56.294Z,3.00
2019-03-08T17:07:32.038Z,3.42
2019-03-08T17:10:25.139Z,3.15
2019-03-08T17:13:24.318Z,3.70
2019-03-08T17:15:59.525Z,2.90
2019-03-08T17:18:36.655Z,3.00
2019-03-08T17:21:21.364Z,4.15
2019-03-08T17:24:00.003Z,3.85
2019-03-08T17:26:44.732Z,3.55
2019-03-08T17:29:30.297Z,2.90
2019-03-08T17:32:20.393Z,4.03
2019-03-08T17:35:22.725Z,4.00
2019-03-08T17:38:12.551Z,3.35
2019-03-08T17:41:02.303Z,3.80
2019-03-08T17:43:52.245Z,4.05
2019-03-08T17:46:29.943Z,4.30
2019-03-08T17:49:14.155Z,4.78
2019-03-08T17:52:01.022Z,4.70
2019-03-08T17:54:46.978Z,5.35
2019-03-08T17:57:43.226Z,5.78
2019-03-08T18:00:25.477Z,4.30
2019-03-08T18:03:05.703Z,4.30
2019-03-08T18:05:52.637Z,4.35
2019-03-08T18:08:35.127Z,4.33
2019-03-08T18:11:27.087Z,4.75
2019-03-08T18:14:24.858Z,5.60
2019-03-08T18:17:14.742Z,4.70
2019-03-08T18:20:04.754Z,5.00
2019-03-08T18:22:51.723Z,4.97
2019-03-08T18:25:32.319Z,5.20
2019-03-08T18:28:19.322Z,5.22
2019-03-08T18:31:09.064Z,4.47
2019-03-08T18:33:49.406Z,4.83
2019-03-08T18:36:32.206Z,4.08
2019-03-08T18:39:31.562Z,6.67
2019-03-08T18:42:13.783Z,5.00
2019-03-08T18:45:12.966Z,4.60
2019-03-08T18:47:59.967Z,5.10
2019-03-08T18:50:45.670Z,4.62
2019-03-08T18:53:51.023Z,5.80
2019-03-08T18:56:45.737Z,5.70
2019-03-08T18:59:33.126Z,4.40
2019-03-08T19:02:18.876Z,4.67
2019-03-08T19:05:06.738Z,4.83
2019-03-08T19:07:58.432Z,4.92
2019-03-08T19:10:57.720Z,4.33
2019-03-08T19:13:42.715Z,4.78
2019-03-08T19:16:25.486Z,4.70
2019-03-08T19:19:23.185Z,4.58
2019-03-08T19:22:00.333Z,4.03
2019-03-08T19:24:53.409Z,3.62
2019-03-08T19:27:40.945Z,4.40
2019-03-08T19:30:28.531Z,4.80
2019-03-08T19:33:08.632Z,4.37
2019-03-08T19:35:52.379Z,4.53
2019-03-08T19:38:36.131Z,4.10
2019-03-08T19:41:23.619Z,4.30
2019-03-08T19:44:16.718Z,4.78
2019-03-08T19:47:07.635Z,4.12
2019-03-08T19:50:05.399Z,5.72
2019-03-08T19:52:52.477Z,4.05
2019-03-08T19:55:44.943Z,4.17
2019-03-08T19:58:28.367Z,3.60
2019-03-08T20:01:09.679Z,3.92
2019-03-08T20:04:17.336Z,3.98
2019-03-08T20:07:01.050Z,3.40
2019-03-08T20:10:06.065Z,3.25
2019-03-08T20:12:56.034Z,3.33
2019-03-08T20:15:43.148Z,3.80
2019-03-08T20:18:28.987Z,3.30
2019-03-08T20:21:06.215Z,4.50
2019-03-08T20:23:50.001Z,3.98
2019-03-08T20:26:37.173Z,4.03
2019-03-08T20:29:33.410Z,3.58
2019-03-08T20:32:21.302Z,4.05
2019-03-08T20:35:21.638Z,3.85
2019-03-08T20:37:58.877Z,3.80
2019-03-08T20:40:47.883Z,3.98
2019-03-08T20:43:21.917Z,3.90
2019-03-08T20:46:14.795Z,3.92
2019-03-08T20:48:45.721Z,3.77
2019-03-08T20:51:15.957Z,4.12
2019-03-08T20:53:48.593Z,4.15
2019-03-08T20:56:16.583Z,3.75
2019-03-08T20:58:44.645Z,3.20
2019-03-08T21:01:12.879Z,3.35
2019-03-08T21:03:41.017Z,3.90
2019-03-08T21:06:09.968Z,4.35
2019-03-08T21:08:39.497Z,4.35
2019-03-08T21:11:07.453Z,4.45
2019-03-08T21:13:35.525Z,3.75
2019-03-08T21:16:03.546Z,4.60
2019-03-08T21:18:31.724Z,3.77
2019-03-08T21:20:59.693Z,4.65
2019-03-08T21:23:27.709Z,4.17
2019-03-08T21:25:55.620Z,4.17
2019-03-08T21:28:24.362Z,3.80
2019-03-08T21:30:52.326Z,4.80
2019-03-08T21:33:20.708Z,3.40
2019-03-08T21:35:48.712Z,3.40
2019-03-08T21:38:16.726Z,3.80
2019-03-08T21:40:46.457Z,3.75
2019-03-08T21:43:14.519Z,3.60
2019-03-08T21:45:44.562Z,3.45
2019-03-08T21:48:15.254Z,3.10
2019-03-08T21:50:44.915Z,4.12
2019-03-08T21:53:12.923Z,4.10
2019-03-08T21:55:41.991Z,4.10
2019-03-08T21:58:10.261Z,3.77
2019-03-08T22:00:40.429Z,4.35
2019-03-08T22:03:08.500Z,3.75
2019-03-08T22:05:40.466Z,4.35
2019-03-08T22:08:17.006Z,3.37
2019-03-08T22:10:43.657Z,4.17
2019-03-08T22:13:11.713Z,3.35
2019-03-08T22:15:42.282Z,3.70
2019-03-08T22:18:10.255Z,4.08
2019-03-08T22:20:39.812Z,4.75
2019-03-08T22:23:15.649Z,3.87
2019-03-08T22:25:43.618Z,3.70
2019-03-08T22:28:17.224Z,3.60
2019-03-08T22:30:45.991Z,4.05
2019-03-08T22:33:16.149Z,4.42
2019-03-08T22:35:44.203Z,3.80
2019-03-08T22:38:12.209Z,3.42
2019-03-08T22:40:41.105Z,3.60
2019-03-08T22:43:11.035Z,3.60
2019-03-08T22:45:40.841Z,3.85
2019-03-08T22:48:10.656Z,3.60
2019-03-08T22:50:41.234Z,4.53
2019-03-08T22:53:09.256Z,3.90
2019-03-08T22:55:37.170Z,4.20
2019-03-08T22:58:05.131Z,4.78
2019-03-08T23:00:59.502Z,3.70
2019-03-08T23:03:27.541Z,3.80
2019-03-08T23:05:55.579Z,3.65
2019-03-08T23:08:23.499Z,5.22
2019-03-08T23:11:03.083Z,4.03
2019-03-08T23:13:30.986Z,3.00
2019-03-08T23:16:00.329Z,4.10
2019-03-08T23:18:28.324Z,3.83
2019-03-08T23:20:56.662Z,3.02
2019-03-08T23:23:24.688Z,4.05
2019-03-08T23:25:52.651Z,2.98
2019-03-08T23:28:29.653Z,3.12
2019-03-08T23:31:01.349Z,2.65
2019-03-08T23:33:29.705Z,2.92
2019-03-08T23:35:57.669Z,3.58
2019-03-08T23:38:33.227Z,2.95
2019-03-08T23:41:01.270Z,3.20
2019-03-08T23:43:29.279Z,3.35
2019-03-08T23:45:58.761Z,2.60
2019-03-08T23:48:26.859Z,3.08
2019-03-08T23:50:55.470Z,2.65
2019-03-08T23:53:23.455Z,3.00
2019-03-08T23:55:58.156Z,2.87
2019-03-08T23:58:26.146Z,2.80
